sensor_id;sensor_type;location;lat;lon;timestamp;pressure;altitude;pressure_sealevel;temperature
15607;BMP180;7865;50.918;4.510;2023-03-26T00:04:25;100248.00;;;9.10
15607;BMP180;7865;50.918;4.510;2023-03-26T00:09:27;100227.00;;;9.10
15607;BMP180;7865;50.918;4.510;2023-03-26T00:14:30;100229.00;;;9.00
15607;BMP180;7865;50.918;4.510;2023-03-26T00:19:33;100235.00;;;9.00
15607;BMP180;7865;50.918;4.510;2023-03-26T00:24:35;100211.00;;;8.80
15607;BMP180;7865;50.918;4.510;2023-03-26T00:29:38;100209.00;;;8.60
15607;BMP180;7865;50.918;4.510;2023-03-26T00:34:40;100216.00;;;8.50
15607;BMP180;7865;50.918;4.510;2023-03-26T00:39:43;100198.00;;;8.40
15607;BMP180;7865;50.918;4.510;2023-03-26T00:44:45;100201.00;;;8.40
15607;BMP180;7865;50.918;4.510;2023-03-26T00:49:47;100203.00;;;8.40
15607;BMP180;7865;50.918;4.510;2023-03-26T00:54:50;100196.00;;;8.30
15607;BMP180;7865;50.918;4.510;2023-03-26T00:59:52;100193.00;;;8.20
15607;BMP180;7865;50.918;4.510;2023-03-26T01:04:57;100181.00;;;8.20
15607;BMP180;7865;50.918;4.510;2023-03-26T01:10:03;100169.00;;;8.10
15607;BMP180;7865;50.918;4.510;2023-03-26T01:15:06;100152.00;;;8.00
15607;BMP180;7865;50.918;4.510;2023-03-26T01:20:12;100143.00;;;7.90
15607;BMP180;7865;50.918;4.510;2023-03-26T01:25:16;100130.00;;;7.90
15607;BMP180;7865;50.918;4.510;2023-03-26T01:40:45;100093.00;;;7.80
15607;BMP180;7865;50.918;4.510;2023-03-26T01:45:50;100086.00;;;7.80
15607;BMP180;7865;50.918;4.510;2023-03-26T01:50:53;100073.00;;;7.80
15607;BMP180;7865;50.918;4.510;2023-03-26T02:01:13;100054.00;;;7.90
15607;BMP180;7865;50.918;4.510;2023-03-26T02:06:46;100033.00;;;7.90
15607;BMP180;7865;50.918;4.510;2023-03-26T02:11:52;100025.00;;;7.90
15607;BMP180;7865;50.918;4.510;2023-03-26T02:16:54;100013.00;;;7.80
15607;BMP180;7865;50.918;4.510;2023-03-26T02:21:57;100011.00;;;7.80
15607;BMP180;7865;50.918;4.510;2023-03-26T02:27:04;100002.00;;;7.70
15607;BMP180;7865;50.918;4.510;2023-03-26T02:32:10;99996.00;;;7.70
15607;BMP180;7865;50.918;4.510;2023-03-26T02:37:15;99982.00;;;7.70
15607;BMP180;7865;50.918;4.510;2023-03-26T02:42:30;99978.00;;;7.70
15607;BMP180;7865;50.918;4.510;2023-03-26T02:47:33;99966.00;;;7.80
15607;BMP180;7865;50.918;4.510;2023-03-26T02:53:13;99940.00;;;7.80
15607;BMP180;7865;50.918;4.510;2023-03-26T02:58:19;99927.00;;;7.90
15607;BMP180;7865;50.918;4.510;2023-03-26T03:03:25;99906.00;;;7.90
15607;BMP180;7865;50.918;4.510;2023-03-26T03:08:33;99896.00;;;7.90
15607;BMP180;7865;50.918;4.510;2023-03-26T03:13:52;99897.00;;;8.00
15607;BMP180;7865;50.918;4.510;2023-03-26T03:19:02;99872.00;;;8.00
15607;BMP180;7865;50.918;4.510;2023-03-26T03:24:11;99868.00;;;8.00
15607;BMP180;7865;50.918;4.510;2023-03-26T03:29:19;99854.00;;;8.00
15607;BMP180;7865;50.918;4.510;2023-03-26T03:34:22;99845.00;;;8.00
15607;BMP180;7865;50.918;4.510;2023-03-26T03:39:26;99829.00;;;7.90
15607;BMP180;7865;50.918;4.510;2023-03-26T03:44:28;99798.00;;;7.90
15607;BMP180;7865;50.918;4.510;2023-03-26T03:49:31;99791.00;;;7.90
15607;BMP180;7865;50.918;4.510;2023-03-26T03:54:34;99780.00;;;7.90
15607;BMP180;7865;50.918;4.510;2023-03-26T03:59:54;99762.00;;;7.90
15607;BMP180;7865;50.918;4.510;2023-03-26T04:05:04;99761.00;;;7.90
15607;BMP180;7865;50.918;4.510;2023-03-26T04:10:08;99742.00;;;8.00
15607;BMP180;7865;50.918;4.510;2023-03-26T04:15:29;99750.00;;;8.00
15607;BMP180;7865;50.918;4.510;2023-03-26T04:20:32;99736.00;;;8.00
15607;BMP180;7865;50.918;4.510;2023-03-26T04:25:36;99728.00;;;8.00
15607;BMP180;7865;50.918;4.510;2023-03-26T04:30:54;99727.00;;;8.00
15607;BMP180;7865;50.918;4.510;2023-03-26T04:36:12;99713.00;;;8.00
15607;BMP180;7865;50.918;4.510;2023-03-26T04:41:15;99701.00;;;8.00
15607;BMP180;7865;50.918;4.510;2023-03-26T04:46:24;99681.00;;;8.00
15607;BMP180;7865;50.918;4.510;2023-03-26T04:51:38;99679.00;;;8.00
15607;BMP180;7865;50.918;4.510;2023-03-26T04:57:34;99664.00;;;8.00
15607;BMP180;7865;50.918;4.510;2023-03-26T05:02:44;99661.00;;;8.00
15607;BMP180;7865;50.918;4.510;2023-03-26T05:07:51;99657.00;;;8.00
15607;BMP180;7865;50.918;4.510;2023-03-26T05:12:54;99652.00;;;8.10
15607;BMP180;7865;50.918;4.510;2023-03-26T05:18:02;99647.00;;;8.10
15607;BMP180;7865;50.918;4.510;2023-03-26T05:23:10;99639.00;;;8.10
15607;BMP180;7865;50.918;4.510;2023-03-26T05:28:36;99640.00;;;8.00
15607;BMP180;7865;50.918;4.510;2023-03-26T05:33:51;99637.00;;;8.00
15607;BMP180;7865;50.918;4.510;2023-03-26T05:38:54;99632.00;;;7.90
15607;BMP180;7865;50.918;4.510;2023-03-26T05:44:15;99623.00;;;7.80
15607;BMP180;7865;50.918;4.510;2023-03-26T05:49:17;99616.00;;;7.70
15607;BMP180;7865;50.918;4.510;2023-03-26T05:54:19;99609.00;;;7.70
15607;BMP180;7865;50.918;4.510;2023-03-26T05:59:40;99601.00;;;7.70
15607;BMP180;7865;50.918;4.510;2023-03-26T06:05:01;99594.00;;;7.70
15607;BMP180;7865;50.918;4.510;2023-03-26T06:10:25;99589.00;;;7.60
15607;BMP180;7865;50.918;4.510;2023-03-26T06:15:27;99580.00;;;7.70
15607;BMP180;7865;50.918;4.510;2023-03-26T06:20:34;99569.00;;;7.70
15607;BMP180;7865;50.918;4.510;2023-03-26T06:25:43;99566.00;;;7.70
15607;BMP180;7865;50.918;4.510;2023-03-26T06:31:11;99562.00;;;7.60
15607;BMP180;7865;50.918;4.510;2023-03-26T06:36:21;99551.00;;;7.60
15607;BMP180;7865;50.918;4.510;2023-03-26T06:41:24;99540.00;;;7.60
15607;BMP180;7865;50.918;4.510;2023-03-26T06:46:46;99538.00;;;7.60
15607;BMP180;7865;50.918;4.510;2023-03-26T06:52:07;99543.00;;;7.60
15607;BMP180;7865;50.918;4.510;2023-03-26T06:57:36;99533.00;;;7.50
15607;BMP180;7865;50.918;4.510;2023-03-26T07:03:05;99528.00;;;7.50
15607;BMP180;7865;50.918;4.510;2023-03-26T07:08:25;99519.00;;;7.40
15607;BMP180;7865;50.918;4.510;2023-03-26T07:13:46;99505.00;;;7.40
15607;BMP180;7865;50.918;4.510;2023-03-26T07:19:07;99506.00;;;7.40
15607;BMP180;7865;50.918;4.510;2023-03-26T07:24:12;99501.00;;;7.30
15607;BMP180;7865;50.918;4.510;2023-03-26T07:36:18;99479.00;;;7.40
15607;BMP180;7865;50.918;4.510;2023-03-26T07:46:52;99453.00;;;7.60
15607;BMP180;7865;50.918;4.510;2023-03-26T07:52:29;99447.00;;;7.60
15607;BMP180;7865;50.918;4.510;2023-03-26T07:58:23;99445.00;;;7.70
15607;BMP180;7865;50.918;4.510;2023-03-26T08:04:12;99438.00;;;7.70
15607;BMP180;7865;50.918;4.510;2023-03-26T08:10:08;99442.00;;;7.70
15607;BMP180;7865;50.918;4.510;2023-03-26T08:15:38;99434.00;;;7.70
15607;BMP180;7865;50.918;4.510;2023-03-26T08:20:46;99435.00;;;7.80
15607;BMP180;7865;50.918;4.510;2023-03-26T08:25:56;99433.00;;;7.90
15607;BMP180;7865;50.918;4.510;2023-03-26T08:31:03;99435.00;;;7.80
15607;BMP180;7865;50.918;4.510;2023-03-26T08:36:07;99428.00;;;7.80
15607;BMP180;7865;50.918;4.510;2023-03-26T08:46:38;99420.00;;;8.00
15607;BMP180;7865;50.918;4.510;2023-03-26T08:57:30;99427.00;;;7.90
15607;BMP180;7865;50.918;4.510;2023-03-26T09:19:52;99442.00;;;8.20
15607;BMP180;7865;50.918;4.510;2023-03-26T09:41:41;99455.00;;;8.30
15607;BMP180;7865;50.918;4.510;2023-03-26T10:14:19;99481.00;;;8.60
15607;BMP180;7865;50.918;4.510;2023-03-26T10:30:36;99498.00;;;8.40
15607;BMP180;7865;50.918;4.510;2023-03-26T10:41:20;99509.00;;;8.40
15607;BMP180;7865;50.918;4.510;2023-03-26T10:46:37;99523.00;;;8.30
15607;BMP180;7865;50.918;4.510;2023-03-26T10:51:48;99522.00;;;8.40
15607;BMP180;7865;50.918;4.510;2023-03-26T10:56:54;99530.00;;;8.60
15607;BMP180;7865;50.918;4.510;2023-03-26T11:23:25;99563.00;;;9.00
15607;BMP180;7865;50.918;4.510;2023-03-26T11:34:26;99576.00;;;9.50
15607;BMP180;7865;50.918;4.510;2023-03-26T11:39:39;99583.00;;;9.40
15607;BMP180;7865;50.918;4.510;2023-03-26T11:45:05;99588.00;;;9.30
15607;BMP180;7865;50.918;4.510;2023-03-26T11:50:15;99607.00;;;9.30
15607;BMP180;7865;50.918;4.510;2023-03-26T11:55:19;99595.00;;;9.40
15607;BMP180;7865;50.918;4.510;2023-03-26T12:00:22;99606.00;;;9.40
15607;BMP180;7865;50.918;4.510;2023-03-26T12:05:28;99606.00;;;9.40
15607;BMP180;7865;50.918;4.510;2023-03-26T12:10:39;99613.00;;;9.70
15607;BMP180;7865;50.918;4.510;2023-03-26T12:15:46;99614.00;;;10.20
15607;BMP180;7865;50.918;4.510;2023-03-26T12:20:48;99622.00;;;9.80
15607;BMP180;7865;50.918;4.510;2023-03-26T12:26:09;99629.00;;;9.40
15607;BMP180;7865;50.918;4.510;2023-03-26T12:31:13;99643.00;;;9.30
15607;BMP180;7865;50.918;4.510;2023-03-26T12:36:23;99647.00;;;9.30
15607;BMP180;7865;50.918;4.510;2023-03-26T12:41:35;99649.00;;;9.80
15607;BMP180;7865;50.918;4.510;2023-03-26T12:47:14;99654.00;;;10.10
15607;BMP180;7865;50.918;4.510;2023-03-26T12:53:07;99656.00;;;10.40
15607;BMP180;7865;50.918;4.510;2023-03-26T12:58:34;99663.00;;;10.90
15607;BMP180;7865;50.918;4.510;2023-03-26T13:19:25;99700.00;;;11.40
15607;BMP180;7865;50.918;4.510;2023-03-26T13:35:27;99728.00;;;9.80
15607;BMP180;7865;50.918;4.510;2023-03-26T13:46:34;99742.00;;;10.20
15607;BMP180;7865;50.918;4.510;2023-03-26T13:51:42;99749.00;;;10.30
15607;BMP180;7865;50.918;4.510;2023-03-26T13:56:53;99750.00;;;10.30
15607;BMP180;7865;50.918;4.510;2023-03-26T14:02:00;99763.00;;;9.80
15607;BMP180;7865;50.918;4.510;2023-03-26T14:07:23;99774.00;;;9.80
15607;BMP180;7865;50.918;4.510;2023-03-26T14:12:32;99776.00;;;9.50
15607;BMP180;7865;50.918;4.510;2023-03-26T14:17:47;99784.00;;;9.50
15607;BMP180;7865;50.918;4.510;2023-03-26T14:23:36;99794.00;;;9.70
15607;BMP180;7865;50.918;4.510;2023-03-26T14:45:21;99820.00;;;9.30
15607;BMP180;7865;50.918;4.510;2023-03-26T15:12:26;99863.00;;;9.60
15607;BMP180;7865;50.918;4.510;2023-03-26T15:17:44;99874.00;;;9.20
15607;BMP180;7865;50.918;4.510;2023-03-26T15:23:31;99891.00;;;8.80
15607;BMP180;7865;50.918;4.510;2023-03-26T15:34:24;99904.00;;;8.60
15607;BMP180;7865;50.918;4.510;2023-03-26T15:39:39;99922.00;;;8.60
15607;BMP180;7865;50.918;4.510;2023-03-26T15:50:46;99929.00;;;8.10
15607;BMP180;7865;50.918;4.510;2023-03-26T15:55:59;99937.00;;;8.00
15607;BMP180;7865;50.918;4.510;2023-03-26T16:06:40;99956.00;;;8.10
15607;BMP180;7865;50.918;4.510;2023-03-26T16:11:55;99976.00;;;8.20
15607;BMP180;7865;50.918;4.510;2023-03-26T16:16:59;99987.00;;;8.30
15607;BMP180;7865;50.918;4.510;2023-03-26T16:22:03;99998.00;;;8.30
15607;BMP180;7865;50.918;4.510;2023-03-26T16:32:26;100012.00;;;8.40
15607;BMP180;7865;50.918;4.510;2023-03-26T16:42:37;100048.00;;;8.40
15607;BMP180;7865;50.918;4.510;2023-03-26T16:47:57;100064.00;;;8.20
15607;BMP180;7865;50.918;4.510;2023-03-26T16:53:44;100080.00;;;8.10
15607;BMP180;7865;50.918;4.510;2023-03-26T16:58:53;100087.00;;;8.00
15607;BMP180;7865;50.918;4.510;2023-03-26T17:04:05;100111.00;;;8.00
15607;BMP180;7865;50.918;4.510;2023-03-26T17:20:08;100137.00;;;7.80
15607;BMP180;7865;50.918;4.510;2023-03-26T17:25:33;100153.00;;;7.70
15607;BMP180;7865;50.918;4.510;2023-03-26T17:31:01;100165.00;;;7.70
15607;BMP180;7865;50.918;4.510;2023-03-26T17:36:45;100185.00;;;7.70
15607;BMP180;7865;50.918;4.510;2023-03-26T17:41:54;100195.00;;;7.60
15607;BMP180;7865;50.918;4.510;2023-03-26T17:46:58;100208.00;;;7.60
15607;BMP180;7865;50.918;4.510;2023-03-26T17:52:18;100220.00;;;7.60
15607;BMP180;7865;50.918;4.510;2023-03-26T17:57:38;100225.00;;;7.50
15607;BMP180;7865;50.918;4.510;2023-03-26T18:02:48;100237.00;;;7.40
15607;BMP180;7865;50.918;4.510;2023-03-26T18:18:51;100287.00;;;7.10
15607;BMP180;7865;50.918;4.510;2023-03-26T18:23:56;100304.00;;;7.00
15607;BMP180;7865;50.918;4.510;2023-03-26T18:29:29;100308.00;;;6.90
15607;BMP180;7865;50.918;4.510;2023-03-26T18:34:32;100333.00;;;6.80
15607;BMP180;7865;50.918;4.510;2023-03-26T18:39:38;100340.00;;;6.70
15607;BMP180;7865;50.918;4.510;2023-03-26T18:44:40;100343.00;;;6.60
15607;BMP180;7865;50.918;4.510;2023-03-26T18:49:47;100370.00;;;6.60
15607;BMP180;7865;50.918;4.510;2023-03-26T18:54:52;100379.00;;;6.50
15607;BMP180;7865;50.918;4.510;2023-03-26T19:00:04;100395.00;;;6.50
15607;BMP180;7865;50.918;4.510;2023-03-26T19:05:15;100400.00;;;6.50
15607;BMP180;7865;50.918;4.510;2023-03-26T19:10:17;100427.00;;;6.40
15607;BMP180;7865;50.918;4.510;2023-03-26T19:15:23;100439.00;;;6.30
15607;BMP180;7865;50.918;4.510;2023-03-26T19:20:28;100451.00;;;6.30
15607;BMP180;7865;50.918;4.510;2023-03-26T19:25:41;100462.00;;;6.20
15607;BMP180;7865;50.918;4.510;2023-03-26T19:30:45;100466.00;;;6.20
15607;BMP180;7865;50.918;4.510;2023-03-26T19:35:58;100483.00;;;6.10
15607;BMP180;7865;50.918;4.510;2023-03-26T19:41:02;100488.00;;;6.10
15607;BMP180;7865;50.918;4.510;2023-03-26T19:46:05;100501.00;;;6.00
15607;BMP180;7865;50.918;4.510;2023-03-26T19:51:35;100507.00;;;6.00
15607;BMP180;7865;50.918;4.510;2023-03-26T19:56:37;100524.00;;;6.00
15607;BMP180;7865;50.918;4.510;2023-03-26T20:01:40;100525.00;;;5.90
15607;BMP180;7865;50.918;4.510;2023-03-26T20:06:42;100533.00;;;5.90
15607;BMP180;7865;50.918;4.510;2023-03-26T20:11:45;100547.00;;;5.80
15607;BMP180;7865;50.918;4.510;2023-03-26T20:16:47;100557.00;;;5.80
15607;BMP180;7865;50.918;4.510;2023-03-26T20:21:50;100582.00;;;5.70
15607;BMP180;7865;50.918;4.510;2023-03-26T20:26:53;100590.00;;;5.60
15607;BMP180;7865;50.918;4.510;2023-03-26T20:31:55;100598.00;;;5.50
15607;BMP180;7865;50.918;4.510;2023-03-26T20:36:58;100617.00;;;5.40
15607;BMP180;7865;50.918;4.510;2023-03-26T20:42:02;100637.00;;;5.40
15607;BMP180;7865;50.918;4.510;2023-03-26T20:47:04;100645.00;;;5.40
15607;BMP180;7865;50.918;4.510;2023-03-26T20:52:06;100656.00;;;5.40
15607;BMP180;7865;50.918;4.510;2023-03-26T20:57:09;100668.00;;;5.50
15607;BMP180;7865;50.918;4.510;2023-03-26T21:02:12;100676.00;;;5.50
15607;BMP180;7865;50.918;4.510;2023-03-26T21:07:14;100683.00;;;5.50
15607;BMP180;7865;50.918;4.510;2023-03-26T21:12:27;100693.00;;;5.40
15607;BMP180;7865;50.918;4.510;2023-03-26T21:17:30;100688.00;;;5.40
15607;BMP180;7865;50.918;4.510;2023-03-26T21:28:28;100699.00;;;5.40
15607;BMP180;7865;50.918;4.510;2023-03-26T21:33:43;100720.00;;;5.40
15607;BMP180;7865;50.918;4.510;2023-03-26T21:38:46;100726.00;;;5.40
15607;BMP180;7865;50.918;4.510;2023-03-26T21:43:49;100749.00;;;5.40
15607;BMP180;7865;50.918;4.510;2023-03-26T21:48:51;100749.00;;;5.40
15607;BMP180;7865;50.918;4.510;2023-03-26T21:53:53;100762.00;;;5.40
15607;BMP180;7865;50.918;4.510;2023-03-26T22:04:33;100776.00;;;5.30
15607;BMP180;7865;50.918;4.510;2023-03-26T22:09:37;100782.00;;;5.30
15607;BMP180;7865;50.918;4.510;2023-03-26T22:14:39;100801.00;;;5.20
15607;BMP180;7865;50.918;4.510;2023-03-26T22:19:42;100804.00;;;5.10
15607;BMP180;7865;50.918;4.510;2023-03-26T22:24:44;100818.00;;;4.90
15607;BMP180;7865;50.918;4.510;2023-03-26T22:29:46;100830.00;;;4.70
15607;BMP180;7865;50.918;4.510;2023-03-26T22:34:48;100844.00;;;4.60
15607;BMP180;7865;50.918;4.510;2023-03-26T22:39:52;100854.00;;;4.60
15607;BMP180;7865;50.918;4.510;2023-03-26T22:44:54;100868.00;;;4.50
15607;BMP180;7865;50.918;4.510;2023-03-26T22:49:56;100884.00;;;4.40
15607;BMP180;7865;50.918;4.510;2023-03-26T22:54:58;100899.00;;;4.30
15607;BMP180;7865;50.918;4.510;2023-03-26T23:00:00;100902.00;;;4.20
15607;BMP180;7865;50.918;4.510;2023-03-26T23:05:12;100915.00;;;4.10
15607;BMP180;7865;50.918;4.510;2023-03-26T23:10:14;100918.00;;;4.20
15607;BMP180;7865;50.918;4.510;2023-03-26T23:15:16;100925.00;;;4.10
15607;BMP180;7865;50.918;4.510;2023-03-26T23:20:21;100939.00;;;4.10
15607;BMP180;7865;50.918;4.510;2023-03-26T23:25:23;100948.00;;;4.10
15607;BMP180;7865;50.918;4.510;2023-03-26T23:30:24;100952.00;;;4.00
15607;BMP180;7865;50.918;4.510;2023-03-26T23:35:27;100963.00;;;4.00
15607;BMP180;7865;50.918;4.510;2023-03-26T23:40:29;100974.00;;;4.10
15607;BMP180;7865;50.918;4.510;2023-03-26T23:45:31;100990.00;;;4.20
15607;BMP180;7865;50.918;4.510;2023-03-26T23:50:33;100991.00;;;4.30
15607;BMP180;7865;50.918;4.510;2023-03-26T23:55:38;101001.00;;;4.30
